Time;durP1;ratioP1;P1;durP2;ratioP2;P2;SDS_P1;SDS_P2;PMS_P1;PMS_P2;Temp;Humidity;BMP_temperature;BMP_pressure;BME280_temperature;BME280_humidity;BME280_pressure;Samples;Min_cycle;Max_cycle;Signal;HPM_P1;HPM_P2
2023/05/27 00:01:50;;;;;;;11.10;3.08;;;9.40;99.90;;;;;;5078174;28;20056;-58
2023/05/27 00:04:15;;;;;;;14.38;3.22;;;9.40;99.90;;;;;;5078638;28;20055;-58
2023/05/27 00:06:41;;;;;;;17.45;4.20;;;9.30;99.90;;;;;;5078948;28;20045;-58
2023/05/27 00:09:07;;;;;;;17.23;4.05;;;9.30;99.90;;;;;;5077733;28;20527;-58
2023/05/27 00:11:32;;;;;;;14.82;4.07;;;9.30;99.90;;;;;;5079268;28;20044;-58
2023/05/27 00:13:58;;;;;;;14.27;3.83;;;9.30;99.90;;;;;;5077422;28;20357;-58
2023/05/27 00:16:24;;;;;;;14.98;3.58;;;9.30;99.90;;;;;;5079415;28;20056;-57
2023/05/27 00:18:50;;;;;;;11.80;3.30;;;9.30;99.90;;;;;;5077786;28;20040;-58
2023/05/27 00:21:16;;;;;;;14.35;3.88;;;9.20;99.90;;;;;;5077989;28;20120;-58
2023/05/27 00:23:46;;;;;;;14.82;4.50;;;9.20;99.90;;;;;;5078398;28;20079;-58
2023/05/27 00:26:11;;;;;;;15.40;4.05;;;9.20;99.90;;;;;;5077320;28;20051;-58
2023/05/27 00:28:37;;;;;;;18.50;4.65;;;9.30;99.90;;;;;;5078950;28;20052;-58
2023/05/27 00:31:03;;;;;;;16.52;4.07;;;9.20;99.90;;;;;;5077055;28;20100;-58
2023/05/27 00:33:28;;;;;;;14.88;3.70;;;9.30;99.90;;;;;;5079100;28;20045;-58
2023/05/27 00:35:54;;;;;;;12.48;3.92;;;9.30;99.90;;;;;;5077415;28;20037;-58
2023/05/27 00:38:20;;;;;;;18.00;3.90;;;9.10;99.90;;;;;;5078328;28;20092;-58
2023/05/27 00:40:46;;;;;;;16.80;3.90;;;9.20;99.90;;;;;;5078114;28;20055;-58
2023/05/27 00:43:12;;;;;;;15.73;4.22;;;9.20;99.90;;;;;;5076946;28;20055;-55
2023/05/27 00:45:37;;;;;;;15.13;3.92;;;9.20;99.90;;;;;;5078384;28;20045;-58
2023/05/27 00:48:04;;;;;;;15.05;3.75;;;9.20;99.90;;;;;;5076605;28;20071;-58
2023/05/27 00:50:30;;;;;;;15.07;3.97;;;9.00;99.90;;;;;;5078635;28;20037;-57
2023/05/27 00:52:56;;;;;;;14.10;3.63;;;9.00;99.90;;;;;;5077063;28;20039;-57
2023/05/27 00:55:23;;;;;;;14.57;3.85;;;9.10;99.90;;;;;;5077816;28;20094;-59
2023/05/27 00:57:49;;;;;;;16.55;3.92;;;9.00;99.90;;;;;;5078071;28;20041;-61
2023/05/27 01:00:15;;;;;;;14.93;4.68;;;9.00;99.90;;;;;;5077006;28;20041;-57
2023/05/27 01:02:42;;;;;;;13.43;4.05;;;8.90;99.90;;;;;;5078499;28;20083;-57
2023/05/27 01:05:14;;;;;;;15.43;4.07;;;8.80;99.90;;;;;;5076426;28;20090;-57
2023/05/27 01:07:58;;;;;;;16.35;4.72;;;8.90;99.90;;;;;;5078820;28;20048;-57
2023/05/27 01:10:28;;;;;;;15.98;3.92;;;8.90;99.90;;;;;;5077642;28;20508;-58
2023/05/27 01:13:06;;;;;;;16.30;3.88;;;9.00;99.90;;;;;;5077274;28;20104;-57
2023/05/27 01:15:33;;;;;;;15.13;4.25;;;9.00;99.90;;;;;;5078460;28;20056;-58
2023/05/27 01:18:02;;;;;;;11.30;3.60;;;9.00;99.90;;;;;;5076572;28;20492;-58
2023/05/27 01:20:29;;;;;;;16.90;3.97;;;9.00;99.90;;;;;;5078378;28;20091;-57
2023/05/27 01:22:57;;;;;;;16.58;3.88;;;9.00;99.90;;;;;;5076631;28;20037;-57
2023/05/27 01:25:23;;;;;;;16.55;3.80;;;9.00;99.90;;;;;;5077790;28;20041;-57
2023/05/27 01:27:49;;;;;;;14.88;4.85;;;9.10;99.90;;;;;;5077688;28;20052;-57
2023/05/27 01:30:15;;;;;;;14.35;3.78;;;9.00;99.90;;;;;;5076367;28;20111;-58
2023/05/27 01:33:09;;;;;;;13.98;3.63;;;9.00;99.90;;;;;;5078089;28;20075;-57
2023/05/27 01:35:52;;;;;;;14.20;4.20;;;8.90;99.90;;;;;;5072642;28;20136;-57
2023/05/27 01:38:22;;;;;;;13.73;3.88;;;9.00;99.90;;;;;;5077814;28;20058;-58
2023/05/27 01:40:49;;;;;;;16.88;4.20;;;8.90;99.90;;;;;;5077871;28;20048;-57
2023/05/27 01:43:17;;;;;;;14.27;3.90;;;9.00;99.90;;;;;;5076410;28;20571;-58
2023/05/27 01:45:43;;;;;;;12.88;3.80;;;8.90;99.90;;;;;;5078306;28;20056;-57
2023/05/27 01:48:09;;;;;;;15.30;3.85;;;9.00;99.90;;;;;;5076212;28;20507;-58
2023/05/27 01:50:38;;;;;;;12.05;3.95;;;8.90;99.90;;;;;;5060249;28;20060;-57
2023/05/27 01:53:06;;;;;;;10.45;3.95;;;9.00;99.90;;;;;;5076461;28;20033;-58
2023/05/27 01:55:32;;;;;;;11.55;4.45;;;8.80;99.90;;;;;;5077184;28;20044;-58
2023/05/27 01:57:57;;;;;;;13.40;3.85;;;8.80;99.90;;;;;;5077253;28;20116;-58
2023/05/27 02:00:24;;;;;;;15.23;4.82;;;8.70;99.90;;;;;;5076207;28;20063;-56
2023/05/27 02:02:50;;;;;;;18.90;4.53;;;8.70;99.90;;;;;;5078163;28;20037;-57
2023/05/27 02:05:16;;;;;;;16.80;4.45;;;8.70;99.90;;;;;;5075933;28;20068;-57
2023/05/27 02:07:42;;;;;;;17.27;4.65;;;8.70;99.90;;;;;;5078343;28;20071;-57
2023/05/27 02:10:08;;;;;;;14.23;4.55;;;8.60;99.90;;;;;;5076359;28;20051;-57
2023/05/27 02:12:34;;;;;;;14.98;4.50;;;8.60;99.90;;;;;;5077572;28;20097;-57
2023/05/27 02:14:59;;;;;;;12.15;4.20;;;8.50;99.90;;;;;;5076916;28;20052;-57
2023/05/27 02:17:27;;;;;;;12.35;3.85;;;8.50;99.90;;;;;;5076325;28;20055;-58
2023/05/27 02:19:52;;;;;;;16.10;3.72;;;8.60;99.90;;;;;;5077685;28;20041;-57
2023/05/27 02:22:18;;;;;;;13.77;3.53;;;8.60;99.90;;;;;;5076013;28;20040;-57
2023/05/27 02:24:44;;;;;;;14.02;5.05;;;8.50;99.90;;;;;;5078300;28;20056;-57
2023/05/27 02:27:10;;;;;;;14.20;4.00;;;8.60;99.90;;;;;;5075889;28;20442;-58
2023/05/27 02:29:36;;;;;;;11.77;3.58;;;8.60;99.90;;;;;;5077321;28;20047;-56
2023/05/27 02:32:01;;;;;;;15.30;4.10;;;8.50;99.90;;;;;;5076949;28;20048;-58
2023/05/27 02:34:27;;;;;;;16.17;3.92;;;8.50;99.90;;;;;;5076359;28;20091;-58
2023/05/27 02:36:53;;;;;;;16.02;3.75;;;8.60;99.90;;;;;;5059531;28;20044;-58
2023/05/27 02:39:18;;;;;;;11.95;3.65;;;8.50;99.90;;;;;;5075826;28;20887;-58
2023/05/27 02:41:44;;;;;;;15.93;4.35;;;8.60;99.90;;;;;;5077717;28;20481;-59
2023/05/27 02:44:10;;;;;;;12.75;3.90;;;8.60;99.90;;;;;;5075676;28;20056;-58
2023/05/27 02:46:35;;;;;;;12.32;3.80;;;8.60;99.90;;;;;;5081328;28;20158;-58
2023/05/27 02:49:01;;;;;;;15.15;3.63;;;8.60;99.90;;;;;;5080324;28;20054;-58
2023/05/27 02:51:28;;;;;;;14.80;4.15;;;8.60;99.90;;;;;;5080047;28;20067;-57
2023/05/27 02:53:54;;;;;;;17.75;3.75;;;8.80;99.90;;;;;;5080954;28;20040;-58
2023/05/27 02:56:21;;;;;;;17.10;4.40;;;8.70;99.90;;;;;;5078991;28;20044;-58
2023/05/27 02:58:46;;;;;;;13.77;3.90;;;8.80;99.90;;;;;;5081249;28;20104;-57
2023/05/27 03:01:12;;;;;;;13.68;4.07;;;8.70;99.90;;;;;;5078996;28;20531;-58
2023/05/27 03:03:38;;;;;;;17.15;3.67;;;8.70;99.90;;;;;;5080950;28;20080;-58
2023/05/27 03:06:03;;;;;;;13.13;3.97;;;8.70;99.90;;;;;;5079740;28;20104;-58
2023/05/27 03:08:29;;;;;;;12.93;4.22;;;8.60;99.90;;;;;;5079803;28;20044;-58
2023/05/27 03:10:55;;;;;;;13.88;3.55;;;8.70;99.90;;;;;;5080394;28;20048;-57
2023/05/27 03:13:21;;;;;;;12.18;3.65;;;8.70;99.90;;;;;;5078782;28;20044;-58
2023/05/27 03:15:47;;;;;;;11.98;3.83;;;8.70;99.90;;;;;;5080917;28;20051;-58
2023/05/27 03:18:12;;;;;;;15.85;4.15;;;8.70;99.90;;;;;;5078568;28;20040;-58
2023/05/27 03:20:38;;;;;;;13.40;4.20;;;8.80;99.90;;;;;;5080809;28;20500;-58
2023/05/27 03:23:03;;;;;;;14.55;4.03;;;8.90;99.90;;;;;;5079049;28;20055;-55
2023/05/27 03:25:29;;;;;;;16.45;3.63;;;8.80;99.90;;;;;;5079591;28;20042;-56
2023/05/27 03:27:55;;;;;;;11.20;4.05;;;8.90;99.90;;;;;;5061925;28;20051;-56
2023/05/27 03:30:20;;;;;;;15.23;4.28;;;8.80;99.90;;;;;;5060689;28;20103;-56
2023/05/27 03:32:46;;;;;;;14.02;3.90;;;8.90;99.90;;;;;;5080219;28;20036;-57
2023/05/27 03:35:12;;;;;;;17.23;4.75;;;8.80;99.90;;;;;;5078356;28;20059;-57
2023/05/27 03:37:37;;;;;;;16.58;3.72;;;8.70;99.90;;;;;;5080439;28;20040;-57
2023/05/27 03:40:04;;;;;;;13.27;3.58;;;8.80;99.90;;;;;;5078331;28;20059;-57
2023/05/27 03:42:30;;;;;;;16.27;4.07;;;8.80;99.90;;;;;;5061684;28;20052;-57
2023/05/27 03:44:55;;;;;;;15.23;3.40;;;8.80;99.90;;;;;;5079440;28;20075;-57
2023/05/27 03:47:21;;;;;;;15.98;4.22;;;8.80;99.90;;;;;;5078725;28;20124;-57
2023/05/27 03:49:47;;;;;;;15.05;4.47;;;8.90;99.90;;;;;;5079759;28;20040;-57
2023/05/27 03:52:13;;;;;;;10.48;3.83;;;8.90;99.90;;;;;;5078135;28;20040;-57
2023/05/27 03:54:41;;;;;;;15.90;3.63;;;9.10;99.90;;;;;;5079769;28;20041;-57
2023/05/27 03:57:07;;;;;;;15.00;4.30;;;9.10;99.90;;;;;;5077153;28;20035;-57
2023/05/27 03:59:33;;;;;;;13.25;3.72;;;9.10;99.90;;;;;;5079872;28;20551;-57
2023/05/27 04:01:59;;;;;;;12.93;3.85;;;9.10;99.90;;;;;;5078881;28;20048;-57
2023/05/27 04:04:25;;;;;;;15.95;4.13;;;9.30;99.90;;;;;;5078480;28;20136;-57
2023/05/27 04:06:51;;;;;;;16.27;3.38;;;9.30;99.90;;;;;;5079402;28;20060;-57
2023/05/27 04:09:17;;;;;;;15.68;4.40;;;9.40;99.90;;;;;;5077439;28;20045;-57
2023/05/27 04:11:42;;;;;;;15.98;4.57;;;9.40;99.90;;;;;;5080090;28;20072;-58
2023/05/27 04:14:09;;;;;;;18.70;4.05;;;9.40;99.90;;;;;;5077928;28;20055;-57
2023/05/27 04:16:36;;;;;;;13.27;3.92;;;9.40;99.90;;;;;;5079412;28;20051;-58
2023/05/27 04:19:02;;;;;;;16.90;4.43;;;9.50;99.90;;;;;;5078622;28;20126;-57
2023/05/27 04:21:28;;;;;;;15.77;4.22;;;9.60;99.90;;;;;;5078504;28;20129;-57
2023/05/27 04:23:54;;;;;;;17.10;4.55;;;9.60;99.90;;;;;;5079059;28;20074;-57
2023/05/27 04:26:20;;;;;;;13.95;3.90;;;9.60;99.90;;;;;;5077637;28;20096;-55
2023/05/27 04:28:46;;;;;;;13.13;4.00;;;9.50;99.90;;;;;;5079490;28;20085;-57
2023/05/27 04:31:13;;;;;;;18.48;4.15;;;9.50;99.90;;;;;;5077074;28;20075;-57
2023/05/27 04:33:42;;;;;;;14.27;4.05;;;9.50;99.90;;;;;;5079299;28;20129;-57
2023/05/27 04:36:09;;;;;;;16.15;5.25;;;9.60;99.90;;;;;;5078229;28;20068;-57
2023/05/27 04:38:34;;;;;;;18.38;4.60;;;9.60;99.90;;;;;;5077817;28;20052;-57
2023/05/27 04:41:00;;;;;;;18.05;4.85;;;9.60;99.90;;;;;;5078826;28;20045;-57
2023/05/27 04:43:27;;;;;;;19.95;4.88;;;9.50;99.90;;;;;;5077516;28;20052;-57
2023/05/27 04:45:53;;;;;;;16.50;4.28;;;9.60;99.90;;;;;;5079089;28;20044;-57
2023/05/27 04:48:23;;;;;;;18.08;4.72;;;9.50;99.90;;;;;;5077130;28;20086;-57
2023/05/27 04:50:52;;;;;;;13.23;5.18;;;9.50;99.90;;;;;;5060772;28;20055;-57
2023/05/27 04:53:18;;;;;;;17.65;4.88;;;9.40;99.90;;;;;;5078010;28;20037;-57
2023/05/27 04:55:45;;;;;;;12.55;4.45;;;9.50;99.90;;;;;;5077729;28;20089;-57
2023/05/27 04:58:10;;;;;;;13.90;4.75;;;9.60;99.90;;;;;;5078491;28;20491;-57
2023/05/27 05:00:38;;;;;;;15.07;5.28;;;9.50;99.90;;;;;;5058632;28;20048;-58
2023/05/27 05:03:05;;;;;;;17.27;5.03;;;9.60;99.90;;;;;;5079004;28;20045;-56
2023/05/27 05:05:31;;;;;;;16.10;4.40;;;9.60;99.90;;;;;;5076411;28;20045;-57
2023/05/27 05:07:57;;;;;;;16.27;4.57;;;9.60;99.90;;;;;;5078004;28;20310;-57
2023/05/27 05:10:23;;;;;;;21.05;6.10;;;9.60;99.90;;;;;;5077314;28;20040;-56
2023/05/27 05:12:49;;;;;;;15.35;5.10;;;9.70;99.90;;;;;;5077598;28;20060;-57
2023/05/27 05:15:15;;;;;;;16.17;5.75;;;9.70;99.90;;;;;;5077965;28;20046;-56
2023/05/27 05:17:41;;;;;;;15.90;5.30;;;9.90;99.90;;;;;;5076758;28;20041;-56
2023/05/27 05:20:08;;;;;;;19.88;5.03;;;10.00;99.90;;;;;;5078306;28;20044;-57
2023/05/27 05:22:34;;;;;;;15.10;4.60;;;9.90;99.90;;;;;;5076659;28;20068;-56
2023/05/27 05:25:00;;;;;;;15.63;4.80;;;10.10;99.90;;;;;;5078493;28;20113;-57
2023/05/27 05:27:27;;;;;;;19.63;5.22;;;10.10;99.90;;;;;;5077368;28;20439;-57
2023/05/27 05:29:53;;;;;;;20.33;5.93;;;10.20;99.90;;;;;;5077428;28;20044;-57
2023/05/27 05:32:19;;;;;;;17.35;4.30;;;10.10;99.90;;;;;;5077787;28;20033;-57
2023/05/27 05:34:45;;;;;;;15.20;4.65;;;10.30;99.90;;;;;;5076392;28;20051;-57
2023/05/27 05:37:11;;;;;;;14.82;4.78;;;10.40;99.90;;;;;;5078614;28;20083;-57
2023/05/27 05:39:37;;;;;;;15.93;4.45;;;10.60;99.90;;;;;;5076623;28;20396;-56
2023/05/27 05:42:03;;;;;;;19.42;4.97;;;10.50;99.90;;;;;;5078297;28;20054;-57
2023/05/27 05:44:29;;;;;;;13.55;4.68;;;10.60;99.90;;;;;;5076812;28;20426;-57
2023/05/27 05:46:55;;;;;;;19.77;4.93;;;10.80;99.90;;;;;;5077343;28;20392;-57
2023/05/27 05:49:20;;;;;;;15.02;4.07;;;10.80;99.90;;;;;;5059406;28;20144;-56
2023/05/27 05:51:46;;;;;;;19.50;4.43;;;10.90;99.90;;;;;;5076460;28;20063;-57
2023/05/27 05:54:12;;;;;;;19.83;4.55;;;10.90;99.90;;;;;;5078325;28;20033;-57
2023/05/27 05:56:38;;;;;;;15.18;3.90;;;11.10;99.90;;;;;;5076243;28;20098;-57
2023/05/27 05:59:03;;;;;;;16.45;4.10;;;11.20;99.90;;;;;;5078097;28;20593;-57
2023/05/27 06:01:29;;;;;;;13.20;4.07;;;11.30;99.90;;;;;;5075859;28;20079;-56
2023/05/27 06:03:56;;;;;;;16.27;3.95;;;11.30;99.90;;;;;;5077150;28;20104;-57
2023/05/27 06:06:22;;;;;;;11.23;4.30;;;11.50;99.90;;;;;;5077367;28;20424;-57
2023/05/27 06:08:47;;;;;;;14.77;3.90;;;11.60;99.90;;;;;;5058676;28;20080;-58
2023/05/27 06:11:13;;;;;;;16.05;4.10;;;11.80;99.90;;;;;;5077549;28;20063;-57
2023/05/27 06:13:40;;;;;;;22.67;4.68;;;11.80;99.90;;;;;;5075835;28;20100;-57
2023/05/27 06:16:06;;;;;;;13.90;4.10;;;12.00;99.90;;;;;;5077444;28;20062;-57
2023/05/27 06:18:32;;;;;;;19.98;5.90;;;11.90;99.90;;;;;;5075925;28;20040;-58
2023/05/27 06:20:58;;;;;;;18.50;4.43;;;12.10;99.90;;;;;;5079911;28;20044;-57
2023/05/27 06:23:23;;;;;;;17.65;4.60;;;12.10;99.90;;;;;;5080371;28;20072;-57
2023/05/27 06:25:49;;;;;;;14.70;4.55;;;12.10;99.90;;;;;;5079955;28;20055;-57
2023/05/27 06:28:15;;;;;;;13.18;3.60;;;12.10;99.90;;;;;;5081259;28;20040;-56
2023/05/27 06:30:42;;;;;;;18.00;4.07;;;12.00;99.90;;;;;;5061226;28;20148;-57
2023/05/27 06:33:08;;;;;;;18.75;4.30;;;12.00;99.90;;;;;;5080981;28;20083;-57
2023/05/27 06:35:34;;;;;;;17.33;4.25;;;12.00;99.90;;;;;;5079463;28;20048;-57
2023/05/27 06:38:00;;;;;;;18.02;5.00;;;12.00;99.90;;;;;;5046169;28;20066;-56
2023/05/27 06:40:25;;;;;;;15.50;4.07;;;12.10;99.90;;;;;;5080404;28;20037;-57
2023/05/27 06:42:51;;;;;;;16.65;4.30;;;12.20;99.90;;;;;;5079373;28;20116;-56
2023/05/27 06:45:17;;;;;;;19.83;5.03;;;12.30;99.90;;;;;;5080723;28;20052;-56
2023/05/27 06:47:42;;;;;;;18.10;4.93;;;12.40;99.90;;;;;;5078865;28;20274;-57
2023/05/27 06:50:08;;;;;;;18.35;5.82;;;12.30;99.90;;;;;;5080747;28;20060;-57
2023/05/27 06:52:34;;;;;;;20.63;5.43;;;12.50;99.90;;;;;;5078991;28;20080;-57
2023/05/27 06:55:00;;;;;;;16.50;4.32;;;12.70;99.90;;;;;;5080741;28;20048;-57
2023/05/27 06:57:26;;;;;;;19.52;4.53;;;12.90;99.90;;;;;;5079811;28;20076;-57
2023/05/27 06:59:52;;;;;;;20.05;4.97;;;12.90;99.90;;;;;;5079802;28;20082;-57
2023/05/27 07:02:17;;;;;;;15.40;4.22;;;12.90;99.90;;;;;;5080266;28;20055;-57
2023/05/27 07:04:43;;;;;;;19.85;5.05;;;13.10;99.90;;;;;;5079201;28;20055;-57
2023/05/27 07:07:09;;;;;;;21.85;5.22;;;13.10;99.90;;;;;;5081001;28;20044;-56
2023/05/27 07:09:35;;;;;;;16.40;4.30;;;13.20;99.90;;;;;;5079107;28;20037;-57
2023/05/27 07:12:04;;;;;;;18.20;4.95;;;13.00;99.90;;;;;;5080980;28;20092;-57
2023/05/27 07:14:29;;;;;;;18.48;4.47;;;13.20;99.90;;;;;;5079884;28;20562;-57
2023/05/27 07:16:55;;;;;;;14.50;4.82;;;13.10;99.90;;;;;;5080112;28;20045;-58
2023/05/27 07:19:22;;;;;;;15.55;4.95;;;13.20;99.90;;;;;;5080686;28;20081;-57
2023/05/27 07:21:48;;;;;;;17.50;4.63;;;13.20;99.90;;;;;;5060976;28;20151;-57
2023/05/27 07:24:13;;;;;;;20.17;5.00;;;13.20;99.90;;;;;;5080857;28;20032;-57
2023/05/27 07:26:40;;;;;;;17.38;3.97;;;13.30;99.90;;;;;;5078668;28;20075;-57
2023/05/27 07:29:06;;;;;;;25.25;5.47;;;13.30;99.90;;;;;;5080618;28;20044;-56
2023/05/27 07:31:31;;;;;;;16.33;4.43;;;13.40;99.90;;;;;;5060657;28;20261;-56
2023/05/27 07:33:57;;;;;;;21.08;5.82;;;13.40;99.90;;;;;;5079614;28;20052;-57
2023/05/27 07:36:23;;;;;;;15.30;6.18;;;13.40;99.90;;;;;;5080112;28;20044;-56
2023/05/27 07:38:49;;;;;;;16.17;4.57;;;13.60;99.90;;;;;;5078918;28;20045;-56
2023/05/27 07:41:15;;;;;;;18.55;4.68;;;13.70;99.90;;;;;;5080820;28;20055;-57
2023/05/27 07:43:41;;;;;;;18.10;4.75;;;13.70;99.90;;;;;;5078393;28;20516;-58
2023/05/27 07:46:06;;;;;;;18.25;5.63;;;13.70;99.90;;;;;;5062455;28;20067;-56
2023/05/27 07:48:32;;;;;;;18.10;5.22;;;13.80;99.90;;;;;;5078659;28;20064;-56
2023/05/27 07:50:58;;;;;;;17.48;5.07;;;13.90;99.90;;;;;;5079776;28;20032;-56
2023/05/27 07:53:23;;;;;;;15.77;4.35;;;14.10;99.90;;;;;;5079753;28;20040;-56
2023/05/27 07:55:49;;;;;;;19.27;4.60;;;14.10;99.90;;;;;;5078368;28;20055;-57
2023/05/27 07:58:15;;;;;;;14.10;4.97;;;14.10;99.90;;;;;;5079873;28;20033;-57
2023/05/27 08:00:40;;;;;;;18.48;4.47;;;14.20;99.90;;;;;;5077941;28;20068;-56
2023/05/27 08:03:06;;;;;;;16.30;4.70;;;14.40;99.90;;;;;;5079870;28;20036;-57
2023/05/27 08:05:32;;;;;;;14.98;4.18;;;14.40;99.90;;;;;;5078371;28;20056;-57
2023/05/27 08:07:59;;;;;;;14.38;4.60;;;14.30;99.90;;;;;;5079687;28;20059;-57
2023/05/27 08:10:25;;;;;;;21.52;5.80;;;14.60;99.90;;;;;;5078997;28;20041;-56
2023/05/27 08:12:51;;;;;;;21.30;5.20;;;14.70;99.90;;;;;;5078043;28;20052;-57
2023/05/27 08:15:17;;;;;;;16.75;4.43;;;14.60;99.90;;;;;;5079340;28;20049;-57
2023/05/27 08:17:43;;;;;;;16.45;4.70;;;14.50;99.90;;;;;;5077717;28;20576;-57
2023/05/27 08:20:10;;;;;;;21.17;4.38;;;14.60;99.90;;;;;;5079826;28;20028;-57
2023/05/27 08:22:36;;;;;;;13.50;5.10;;;14.80;99.90;;;;;;5077562;28;20056;-57
2023/05/27 08:25:02;;;;;;;18.42;4.35;;;15.00;99.90;;;;;;5079565;28;20844;-57
2023/05/27 08:27:52;;;;;;;16.15;5.10;;;15.10;99.90;;;;;;5060480;28;20059;-57
2023/05/27 08:30:18;;;;;;;14.55;4.25;;;15.00;99.90;;;;;;5059114;28;20056;-57
2023/05/27 08:32:44;;;;;;;16.63;4.65;;;15.00;99.90;;;;;;5079384;28;20042;-57
2023/05/27 08:35:13;;;;;;;19.15;5.50;;;14.70;99.90;;;;;;5077002;28;20131;-57
2023/05/27 08:37:40;;;;;;;17.08;5.38;;;14.70;99.90;;;;;;5079103;28;20033;-57
2023/05/27 08:40:10;;;;;;;16.25;6.07;;;14.90;99.90;;;;;;5077648;28;20036;-58
2023/05/27 08:42:36;;;;;;;17.70;5.05;;;15.10;99.90;;;;;;5077556;28;20033;-57
2023/05/27 08:45:03;;;;;;;19.77;6.28;;;15.40;99.90;;;;;;5078360;28;20084;-57
2023/05/27 08:47:32;;;;;;;19.40;4.68;;;15.20;99.90;;;;;;5077324;28;20040;-57
2023/05/27 08:50:00;;;;;;;18.27;5.32;;;15.10;99.90;;;;;;5078849;28;20045;-57
2023/05/27 08:52:29;;;;;;;16.17;5.07;;;15.10;99.90;;;;;;5076608;28;20040;-58
2023/05/27 08:54:59;;;;;;;15.35;4.97;;;15.30;99.90;;;;;;5078761;28;20897;-58
2023/05/27 08:57:29;;;;;;;14.45;5.15;;;15.30;99.90;;;;;;5077637;28;20048;-58
2023/05/27 08:59:56;;;;;;;17.33;6.03;;;15.30;99.90;;;;;;5077388;28;20083;-57
2023/05/27 09:02:23;;;;;;;18.20;5.70;;;15.50;99.90;;;;;;5077995;28;20051;-57
2023/05/27 09:04:49;;;;;;;15.93;5.30;;;15.60;99.90;;;;;;5077036;28;20056;-57
2023/05/27 09:07:15;;;;;;;13.30;4.57;;;15.60;99.90;;;;;;5078558;28;20033;-58
2023/05/27 09:09:41;;;;;;;19.75;5.32;;;15.70;99.90;;;;;;5058710;28;20048;-57
2023/05/27 09:12:10;;;;;;;19.38;5.53;;;15.40;99.90;;;;;;5078620;28;20116;-58
2023/05/27 09:14:39;;;;;;;20.20;5.53;;;15.80;99.90;;;;;;5077396;28;20401;-58
2023/05/27 09:17:07;;;;;;;22.27;5.88;;;15.70;99.90;;;;;;5077059;28;20127;-57
2023/05/27 09:19:33;;;;;;;17.85;6.07;;;15.40;99.90;;;;;;5059475;28;20047;-58
2023/05/27 09:21:58;;;;;;;16.33;5.43;;;15.70;99.90;;;;;;5076463;28;20037;-58
2023/05/27 09:24:25;;;;;;;20.60;5.68;;;15.90;99.90;;;;;;5078363;28;20445;-58
2023/05/27 09:26:51;;;;;;;15.80;5.72;;;16.00;99.90;;;;;;5076329;28;20044;-58
2023/05/27 09:29:23;;;;;;;19.67;6.32;;;16.10;99.90;;;;;;5078301;28;20064;-58
2023/05/27 09:31:52;;;;;;;;;;;16.10;99.90;;;;;;5077662;28;20484;-57
2023/05/27 09:34:18;;;;;;;16.90;5.40;;;16.20;99.90;;;;;;5076683;28;19935;-58
2023/05/27 09:36:51;;;;;;;18.63;5.55;;;16.20;99.90;;;;;;5077809;28;20053;-58
2023/05/27 09:39:22;;;;;;;21.17;6.45;;;16.30;99.90;;;;;;5076085;28;20045;-58
2023/05/27 09:41:53;;;;;;;16.87;5.30;;;16.30;99.90;;;;;;5078043;28;20175;-58
2023/05/27 09:44:19;;;;;;;18.70;6.60;;;16.50;99.90;;;;;;5076108;28;20092;-57
2023/05/27 09:46:45;;;;;;;20.33;5.60;;;16.40;99.90;;;;;;5077053;28;20056;-58
2023/05/27 09:49:14;;;;;;;17.20;5.93;;;16.50;99.90;;;;;;5077326;28;20044;-58
2023/05/27 09:51:41;;;;;;;21.95;5.75;;;16.60;99.90;;;;;;5058115;28;20040;-58
2023/05/27 09:54:08;;;;;;;15.60;5.63;;;16.70;99.90;;;;;;5078023;28;20574;-58
2023/05/27 09:56:35;;;;;;;16.38;5.03;;;16.40;99.90;;;;;;5080085;28;20338;-57
2023/05/27 09:59:01;;;;;;;20.48;6.38;;;16.50;99.90;;;;;;5081893;28;20037;-57
2023/05/27 10:01:29;;;;;;;18.52;6.57;;;16.60;99.90;;;;;;5079918;28;20128;-57
2023/05/27 10:03:58;;;;;;;16.90;5.68;;;16.70;99.90;;;;;;5080994;28;20036;-58
2023/05/27 10:06:25;;;;;;;14.25;4.88;;;16.80;99.90;;;;;;5063526;28;20096;-58
2023/05/27 10:08:55;;;;;;;13.15;4.95;;;17.00;99.90;;;;;;5061960;28;20522;-57
2023/05/27 10:11:21;;;;;;;19.02;6.07;;;16.90;99.90;;;;;;5082324;28;20041;-57
2023/05/27 10:13:50;;;;;;;15.82;6.32;;;17.00;99.90;;;;;;5079996;28;20096;-58
2023/05/27 10:16:25;;;;;;;13.45;5.20;;;17.10;99.90;;;;;;5081633;28;20099;-57
2023/05/27 10:18:55;;;;;;;21.60;7.32;;;17.00;99.90;;;;;;5080658;28;20574;-58
2023/05/27 10:21:28;;;;;;;17.52;5.28;;;17.10;99.90;;;;;;5080438;28;20084;-56
2023/05/27 10:23:58;;;;;;;18.00;5.38;;;17.30;99.90;;;;;;5081364;28;20532;-57
2023/05/27 10:26:41;;;;;;;17.42;5.93;;;17.50;99.90;;;;;;5079590;28;20642;-57
2023/05/27 10:29:13;;;;;;;14.90;5.85;;;17.60;99.90;;;;;;5081670;28;20725;-58
2023/05/27 10:31:52;;;;;;;18.35;6.20;;;17.40;99.90;;;;;;5080470;28;20057;-57
2023/05/27 10:34:18;;;;;;;18.40;5.60;;;17.40;99.90;;;;;;5080268;28;20074;-58
2023/05/27 10:36:45;;;;;;;18.30;7.32;;;17.50;99.90;;;;;;5080791;28;20080;-57
2023/05/27 10:39:18;;;;;;;15.48;5.22;;;17.50;99.90;;;;;;5079325;28;20492;-57
2023/05/27 10:41:50;;;;;;;18.70;5.68;;;17.50;99.90;;;;;;5081390;28;20049;-58
2023/05/27 10:44:35;;;;;;;13.70;4.63;;;17.70;99.90;;;;;;5079220;28;20091;-57
2023/05/27 10:47:02;;;;;;;17.20;5.20;;;17.70;99.90;;;;;;5079758;28;20052;-58
2023/05/27 10:49:35;;;;;;;14.15;5.38;;;17.80;99.90;;;;;;5080733;28;20048;-57
2023/05/27 10:52:12;;;;;;;15.10;6.30;;;17.80;99.90;;;;;;5079015;28;20159;-56
2023/05/27 10:54:42;;;;;;;14.48;4.80;;;17.70;99.90;;;;;;5081099;28;20056;-57
2023/05/27 10:57:08;;;;;;;13.30;4.75;;;17.90;99.90;;;;;;5079409;28;20057;-57
2023/05/27 10:59:59;;;;;;;13.77;5.00;;;17.90;99.90;;;;;;5080177;28;20036;-57
2023/05/27 11:02:34;;;;;;;17.88;5.28;;;18.20;99.90;;;;;;5080225;28;20052;-58
2023/05/27 11:05:00;;;;;;;14.57;5.15;;;18.30;99.90;;;;;;5078197;28;20136;-58
2023/05/27 11:07:26;;;;;;;12.70;5.75;;;18.30;99.90;;;;;;5062261;28;20506;-57
2023/05/27 11:09:55;;;;;;;17.33;5.68;;;18.30;99.90;;;;;;5079167;28;20037;-59
2023/05/27 11:12:22;;;;;;;13.32;5.53;;;18.40;99.90;;;;;;5079853;28;20060;-58
2023/05/27 11:14:53;;;;;;;13.52;4.68;;;18.30;99.90;;;;;;5080014;28;20049;-56
2023/05/27 11:17:19;;;;;;;12.90;5.05;;;18.40;99.90;;;;;;5079409;28;20040;-57
2023/05/27 11:19:45;;;;;;;18.10;6.05;;;18.50;99.90;;;;;;5080486;28;20040;-56
2023/05/27 11:22:12;;;;;;;18.88;6.13;;;18.50;99.90;;;;;;5060434;28;20048;-58
2023/05/27 11:24:39;;;;;;;19.65;5.28;;;18.70;99.90;;;;;;5062387;28;20066;-57
2023/05/27 11:27:12;;;;;;;12.50;4.60;;;18.70;99.90;;;;;;5078805;28;20378;-57
2023/05/27 11:29:38;;;;;;;16.23;5.13;;;18.70;99.90;;;;;;5079261;28;20071;-57
2023/05/27 11:32:09;;;;;;;19.30;5.55;;;18.80;99.90;;;;;;5079465;28;20036;-58
2023/05/27 11:34:35;;;;;;;14.93;5.20;;;18.90;99.90;;;;;;5078324;28;20053;-57
2023/05/27 11:37:05;;;;;;;16.45;5.65;;;18.80;99.90;;;;;;5079901;28;20036;-57
2023/05/27 11:39:32;;;;;;;15.77;6.28;;;18.90;99.90;;;;;;5077958;28;20048;-57
2023/05/27 11:41:58;;;;;;;17.55;5.32;;;19.00;99.90;;;;;;5080069;28;20044;-57
2023/05/27 11:44:25;;;;;;;15.43;5.32;;;19.00;99.90;;;;;;5078572;28;20056;-56
2023/05/27 11:46:52;;;;;;;15.80;5.35;;;19.00;99.90;;;;;;5078782;28;20415;-57
2023/05/27 11:49:19;;;;;;;17.92;5.40;;;19.10;99.90;;;;;;5079421;28;20049;-57
2023/05/27 11:51:49;;;;;;;15.23;5.20;;;19.00;99.90;;;;;;5059699;28;20079;-57
2023/05/27 11:54:28;;;;;;;15.45;5.53;;;19.00;99.90;;;;;;5080232;28;20079;-57
2023/05/27 11:56:56;;;;;;;14.95;6.22;;;19.00;99.90;;;;;;5078270;28;20051;-58
2023/05/27 11:59:23;;;;;;;17.88;5.15;;;19.10;99.90;;;;;;5079028;28;20048;-57
2023/05/27 12:01:49;;;;;;;17.55;7.45;;;19.20;99.90;;;;;;5078507;28;20045;-57
2023/05/27 12:04:15;;;;;;;18.33;5.43;;;19.10;99.90;;;;;;5077422;28;20054;-57
2023/05/27 12:06:42;;;;;;;17.33;5.90;;;19.30;99.90;;;;;;5079291;28;20044;-58
2023/05/27 12:09:08;;;;;;;17.77;5.53;;;19.30;99.90;;;;;;5077560;28;20055;-57
2023/05/27 12:11:38;;;;;;;14.70;5.13;;;19.40;99.90;;;;;;5079510;28;20040;-57
2023/05/27 12:14:04;;;;;;;14.57;5.38;;;19.40;99.90;;;;;;5077508;28;20037;-58
2023/05/27 12:16:30;;;;;;;14.98;6.75;;;19.50;99.90;;;;;;5078696;28;20123;-58
2023/05/27 12:18:58;;;;;;;21.50;5.80;;;19.30;99.90;;;;;;5076978;28;20101;-57
2023/05/27 12:21:24;;;;;;;18.83;5.55;;;19.20;99.90;;;;;;5077252;28;20071;-57
2023/05/27 12:23:50;;;;;;;14.63;5.68;;;19.40;99.90;;;;;;5078577;28;20048;-57
2023/05/27 12:26:16;;;;;;;14.35;5.20;;;19.40;99.90;;;;;;5076724;28;20114;-57
2023/05/27 12:28:43;;;;;;;16.33;5.68;;;19.50;99.90;;;;;;5079149;28;20092;-57
2023/05/27 12:31:09;;;;;;;14.50;5.50;;;19.60;99.90;;;;;;5076603;28;20055;-59
2023/05/27 12:33:35;;;;;;;15.63;5.50;;;19.60;99.90;;;;;;5078031;28;20037;-57
2023/05/27 12:36:01;;;;;;;14.98;5.70;;;19.60;99.90;;;;;;5077692;28;20058;-58
2023/05/27 12:38:27;;;;;;;14.90;6.10;;;19.80;99.90;;;;;;5077243;28;20136;-58
2023/05/27 12:40:55;;;;;;;14.77;6.00;;;19.80;99.90;;;;;;5078137;28;20102;-58